createdAt,value
2019-05-06T00:11:19.873Z,2.08
2019-05-06T00:26:37.763Z,1.27
2019-05-06T00:41:46.543Z,1.52
2019-05-06T00:56:54.171Z,1.75
2019-05-06T01:12:03.733Z,1.80
2019-05-06T01:27:11.003Z,2.00
2019-05-06T01:42:19.650Z,1.92
2019-05-06T01:57:26.466Z,1.87
2019-05-06T02:12:34.261Z,1.75
2019-05-06T02:27:41.467Z,1.95
2019-05-06T02:42:49.122Z,2.30
2019-05-06T02:57:56.594Z,1.98
2019-05-06T03:13:04.427Z,1.98
2019-05-06T03:28:13.348Z,1.98
2019-05-06T03:43:23.273Z,2.47
2019-05-06T03:58:29.810Z,2.47
2019-05-06T04:13:38.288Z,2.60
2019-05-06T04:28:46.454Z,4.70
2019-05-06T04:43:53.681Z,3.98
2019-05-06T04:59:05.804Z,4.00
2019-05-06T05:14:13.365Z,3.95
2019-05-06T05:29:22.872Z,3.02
2019-05-06T05:44:44.448Z,2.90
2019-05-06T05:59:52.859Z,3.35
2019-05-06T06:15:02.270Z,2.42
2019-05-06T06:30:08.754Z,2.50
2019-05-06T06:45:15.806Z,2.25
2019-05-06T07:00:33.697Z,2.72
2019-05-06T07:15:42.579Z,2.17
2019-05-06T07:46:14.685Z,2.80
2019-05-06T08:01:25.859Z,2.27
2019-05-06T08:16:33.577Z,2.62
2019-05-06T08:31:42.951Z,2.27
2019-05-06T08:46:49.380Z,2.37
2019-05-06T09:02:03.354Z,1.80
2019-05-06T09:17:12.110Z,1.82
2019-05-06T09:32:23.359Z,2.00
2019-05-06T09:47:33.124Z,2.20
2019-05-06T10:02:42.888Z,2.40
2019-05-06T10:17:52.115Z,3.00
2019-05-06T10:33:02.088Z,1.47
2019-05-06T10:48:08.794Z,1.47
2019-05-06T11:03:23.123Z,1.67
2019-05-06T11:18:29.899Z,1.45
2019-05-06T11:33:42.557Z,1.55
2019-05-06T11:48:49.735Z,1.72
2019-05-06T12:03:57.515Z,1.52
2019-05-06T12:19:04.403Z,1.32
2019-05-06T12:34:12.495Z,2.22
2019-05-06T12:49:20.039Z,2.08
2019-05-06T13:04:46.283Z,2.15
2019-05-06T13:19:35.962Z,2.30
2019-05-06T13:34:43.240Z,2.52
2019-05-06T13:49:55.321Z,2.80
2019-05-06T14:05:03.033Z,2.10
2019-05-06T14:20:12.530Z,2.10
2019-05-06T14:35:23.092Z,2.60
2019-05-06T14:50:44.378Z,2.90
2019-05-06T15:05:39.211Z,3.70
2019-05-06T15:20:46.121Z,4.35
2019-05-06T15:36:02.380Z,2.80
2019-05-06T15:51:12.064Z,2.58
2019-05-06T16:06:18.874Z,2.72
2019-05-06T16:21:25.608Z,2.87
2019-05-06T16:36:33.587Z,3.75
2019-05-06T16:51:43.878Z,8.08
2019-05-06T17:06:52.308Z,8.00
2019-05-06T17:22:03.085Z,11.08
2019-05-06T17:37:16.019Z,8.95
2019-05-06T17:52:25.773Z,11.38
2019-05-06T18:07:34.453Z,14.98
2019-05-06T18:22:41.230Z,20.82
2019-05-06T18:37:48.493Z,17.70
2019-05-06T18:52:55.236Z,13.10
2019-05-06T19:08:04.392Z,7.08
2019-05-06T19:23:15.336Z,4.10
2019-05-06T19:38:24.485Z,7.03
2019-05-06T19:53:33.319Z,3.72
2019-05-06T20:08:44.512Z,3.40
2019-05-06T20:23:52.936Z,3.58
2019-05-06T20:39:02.349Z,3.25
2019-05-06T20:54:12.971Z,4.08
2019-05-06T21:09:23.107Z,4.08
2019-05-06T21:24:32.217Z,4.50
2019-05-06T21:39:45.207Z,4.12
2019-05-06T21:54:55.538Z,4.33
2019-05-06T22:10:02.865Z,5.60
2019-05-06T22:40:16.294Z,6.92
2019-05-06T23:10:28.627Z,7.92
2019-05-06T23:25:35.366Z,7.00
2019-05-06T23:41:36.700Z,7.33
2019-05-06T23:56:43.999Z,9.40
